Time;durP1;ratioP1;P1;durP2;ratioP2;P2;SDS_P1;SDS_P2;PMS_P1;PMS_P2;Temp;Humidity;BMP_temperature;BMP_pressure;BME280_temperature;BME280_humidity;BME280_pressure;Samples;Min_cycle;Max_cycle;Signal;HPM_P1;HPM_P2
2023/06/17 00:02:10;;;;;;;8.63;5.13;;;;;;;18.65;55.69;98598.66;4993922;28;20087;-46
2023/06/17 00:04:37;;;;;;;12.30;4.95;;;;;;;18.50;55.88;98596.69;4993994;28;20404;-46
2023/06/17 00:07:02;;;;;;;13.77;5.30;;;;;;;18.55;55.85;98596.72;5011370;28;20132;-45
2023/06/17 00:09:28;;;;;;;11.57;4.38;;;;;;;18.65;55.93;98600.50;4993822;28;20164;-46
2023/06/17 00:11:56;;;;;;;7.63;4.00;;;;;;;18.74;55.63;98596.31;4977759;28;20026;-46
2023/06/17 00:14:23;;;;;;;9.15;4.97;;;;;;;18.80;55.21;98595.34;5011437;28;20030;-46
2023/06/17 00:16:48;;;;;;;14.50;4.78;;;;;;;18.83;55.06;98596.66;4994152;28;20136;-46
2023/06/17 00:19:17;;;;;;;11.40;4.68;;;;;;;18.81;54.96;98588.94;4993857;28;20022;-46
2023/06/17 00:21:52;;;;;;;9.02;4.72;;;;;;;18.71;55.56;98599.47;4993813;28;20476;-46
2023/06/17 00:24:19;;;;;;;9.80;4.45;;;;;;;18.55;55.70;98594.06;5011745;28;20032;-46
2023/06/17 00:26:45;;;;;;;7.30;4.43;;;;;;;18.49;55.96;98594.25;4997661;28;20021;-46
2023/06/17 00:29:11;;;;;;;14.57;5.20;;;;;;;18.38;56.46;98604.03;5014851;28;20561;-46
2023/06/17 00:31:37;;;;;;;15.32;10.95;;;;;;;18.29;56.41;98600.22;5014920;28;20030;-46
2023/06/17 00:34:03;;;;;;;7.38;4.85;;;;;;;18.27;56.72;98592.53;5014856;28;20022;-46
2023/06/17 00:36:29;;;;;;;8.85;5.60;;;;;;;18.19;56.83;98602.78;4997161;28;20466;-46
2023/06/17 00:38:55;;;;;;;5.32;4.72;;;;;;;18.19;57.28;98592.16;4997489;28;20034;-46
2023/06/17 00:41:20;;;;;;;6.93;5.00;;;;;;;18.26;56.83;98593.56;5014748;28;20439;-46
2023/06/17 00:43:46;;;;;;;10.20;4.82;;;;;;;18.25;57.01;98588.50;4980977;28;20030;-46
2023/06/17 00:46:19;;;;;;;16.38;7.93;;;;;;;18.17;57.25;98590.56;4997078;28;20033;-46
2023/06/17 00:49:05;;;;;;;11.38;5.25;;;;;;;18.16;57.37;98590.81;4996987;28;20113;-46
2023/06/17 00:51:32;;;;;;;10.05;4.78;;;;;;;18.13;57.10;98588.69;5014675;28;20026;-46
2023/06/17 00:54:01;;;;;;;7.95;4.88;;;;;;;18.09;57.41;98582.25;4996919;28;20029;-46
2023/06/17 00:56:28;;;;;;;9.82;5.85;;;;;;;18.05;57.64;98581.13;5014748;28;20037;-46
2023/06/17 00:58:54;;;;;;;9.30;4.88;;;;;;;17.94;57.65;98575.75;5014703;28;20036;-46
2023/06/17 01:01:35;;;;;;;15.25;12.25;;;;;;;17.82;58.07;98575.06;5014286;28;20496;-46
2023/06/17 01:04:10;;;;;;;8.88;6.05;;;;;;;17.84;58.30;98575.63;5014313;28;20029;-46
2023/06/17 01:07:26;;;;;;;15.15;5.40;;;;;;;17.82;58.36;98574.25;5014168;28;20068;-46
2023/06/17 01:10:24;;;;;;;11.30;5.88;;;;;;;17.76;58.31;98571.53;4983919;28;20069;-46
2023/06/17 01:12:52;;;;;;;10.32;5.28;;;;;;;17.74;58.00;98565.69;4996786;28;20072;-45
2023/06/17 01:15:19;;;;;;;33.38;25.65;;;;;;;17.67;58.27;98573.06;4996494;28;20068;-45
2023/06/17 01:17:46;;;;;;;11.63;10.40;;;;;;;17.65;58.44;98572.50;4996555;28;20700;-45
2023/06/17 01:20:13;;;;;;;9.90;6.88;;;;;;;17.62;58.51;98569.53;5013920;28;20033;-46
2023/06/17 01:22:40;;;;;;;8.55;5.47;;;;;;;17.52;59.01;98570.22;5014011;28;20491;-45
2023/06/17 01:25:06;;;;;;;12.68;5.53;;;;;;;17.37;59.36;98568.22;4980079;28;20108;-45
2023/06/17 01:27:33;;;;;;;13.85;6.07;;;;;;;17.23;59.67;98570.41;5013801;28;20026;-46
2023/06/17 01:29:59;;;;;;;10.00;5.43;;;;;;;17.25;59.94;98567.53;5013800;28;20113;-45
2023/06/17 01:32:25;;;;;;;17.45;5.75;;;;;;;17.33;59.75;98573.19;5013769;28;20515;-45
2023/06/17 01:35:04;;;;;;;7.72;4.80;;;;;;;17.33;60.90;98573.19;4996137;28;20086;-46
2023/06/17 01:37:40;;;;;;;21.67;18.40;;;;;;;17.17;61.50;98571.41;4979201;28;20551;-45
2023/06/17 01:40:10;;;;;;;14.10;8.57;;;;;;;17.05;61.57;98570.72;4996351;28;20034;-45
2023/06/17 01:42:43;;;;;;;13.07;8.75;;;;;;;17.03;61.88;98570.97;5013713;28;20101;-46
2023/06/17 01:45:10;;;;;;;6.97;5.22;;;;;;;17.11;61.63;98562.59;4995980;28;20435;-45
2023/06/17 01:47:36;;;;;;;9.80;5.30;;;;;;;17.20;61.28;98564.81;4995881;28;20034;-46
2023/06/17 01:50:04;;;;;;;22.65;10.05;;;;;;;17.28;60.78;98559.06;5013339;28;20077;-45
2023/06/17 01:52:30;;;;;;;12.48;8.40;;;;;;;17.24;60.61;98568.56;4996116;28;20026;-46
2023/06/17 01:54:57;;;;;;;7.70;5.70;;;;;;;17.09;60.75;98563.88;5013343;28;20108;-46
2023/06/17 01:57:23;;;;;;;8.55;5.53;;;;;;;16.97;60.95;98567.44;5013294;28;20026;-45
2023/06/17 01:59:49;;;;;;;6.78;4.47;;;;;;;16.77;61.63;98573.22;4996029;28;20029;-45
2023/06/17 02:02:15;;;;;;;10.15;6.13;;;;;;;16.65;62.21;98567.22;4995479;28;20037;-45
2023/06/17 02:04:41;;;;;;;17.30;13.13;;;;;;;16.56;62.47;98563.38;4995515;28;20488;-47
2023/06/17 02:07:07;;;;;;;14.18;7.20;;;;;;;16.44;62.90;98563.47;5012815;28;20046;-48
2023/06/17 02:09:33;;;;;;;14.45;6.15;;;;;;;16.54;62.93;98555.69;4979215;28;20033;-48
2023/06/17 02:11:58;;;;;;;15.73;9.23;;;;;;;16.56;62.68;98558.88;4995404;28;20053;-48
2023/06/17 02:14:24;;;;;;;8.27;5.50;;;;;;;16.68;62.58;98557.97;4995443;28;20056;-48
2023/06/17 02:16:52;;;;;;;5.05;4.50;;;;;;;16.83;62.03;98552.94;4995278;28;20492;-48
2023/06/17 02:19:18;;;;;;;8.50;5.47;;;;;;;16.88;61.58;98546.88;5013070;28;20036;-48
2023/06/17 02:21:43;;;;;;;8.27;4.70;;;;;;;16.93;61.55;98549.63;5012881;28;20402;-48
2023/06/17 02:24:10;;;;;;;16.60;14.18;;;;;;;16.94;61.34;98551.22;4995131;28;20026;-48
2023/06/17 02:26:36;;;;;;;9.73;8.73;;;;;;;16.90;61.54;98545.63;5012703;28;20026;-48
2023/06/17 02:29:03;;;;;;;15.27;10.25;;;;;;;16.82;61.66;98546.03;5012634;28;20061;-48
2023/06/17 02:31:28;;;;;;;21.42;15.98;;;;;;;16.80;61.70;98552.56;5012979;28;20045;-48
2023/06/17 02:33:55;;;;;;;10.95;8.57;;;;;;;16.76;61.51;98544.31;4995357;28;20399;-48
2023/06/17 02:36:21;;;;;;;9.15;7.95;;;;;;;16.83;61.92;98544.97;4994992;28;20442;-48
2023/06/17 02:38:47;;;;;;;7.38;5.30;;;;;;;16.97;61.60;98542.78;4995027;28;20072;-48
2023/06/17 02:41:13;;;;;;;11.70;9.18;;;;;;;17.05;61.26;98549.50;4994824;28;20384;-48
2023/06/17 02:43:39;;;;;;;11.85;8.95;;;;;;;16.99;61.08;98550.50;5012573;28;20515;-48
2023/06/17 02:46:04;;;;;;;11.25;9.65;;;;;;;16.85;61.23;98542.88;4995058;28;20053;-48
2023/06/17 02:48:30;;;;;;;8.23;6.00;;;;;;;16.77;61.30;98549.38;4994323;28;20018;-48
2023/06/17 02:50:55;;;;;;;9.63;7.10;;;;;;;16.67;61.65;98540.47;4994976;28;20037;-48
2023/06/17 02:53:22;;;;;;;9.68;6.85;;;;;;;16.51;62.26;98550.84;4994747;28;20022;-48
2023/06/17 02:55:48;;;;;;;8.57;6.80;;;;;;;16.35;62.72;98557.75;5012379;28;20026;-48
2023/06/17 02:58:15;;;;;;;11.50;6.63;;;;;;;16.22;63.42;98554.63;5012372;28;20403;-48
2023/06/17 03:00:42;;;;;;;15.10;6.65;;;;;;;16.08;64.12;98552.31;4994624;28;20034;-48
2023/06/17 03:03:10;;;;;;;13.70;7.05;;;;;;;16.00;64.61;98563.28;5012219;28;20022;-48
2023/06/17 03:05:37;;;;;;;8.48;6.13;;;;;;;15.96;65.01;98556.84;5012133;28;20109;-49
2023/06/17 03:08:03;;;;;;;13.13;5.80;;;;;;;15.89;65.19;98558.84;5012254;28;20032;-48
2023/06/17 03:10:29;;;;;;;9.23;7.30;;;;;;;15.78;65.47;98566.59;5012013;28;20029;-48
2023/06/17 03:12:55;;;;;;;24.80;21.20;;;;;;;15.73;65.89;98563.06;5012107;28;20030;-48
2023/06/17 03:15:21;;;;;;;10.75;6.57;;;;;;;15.77;66.02;98566.81;5012330;28;20018;-48
2023/06/17 03:17:46;;;;;;;7.47;6.68;;;;;;;15.75;66.09;98574.19;4994659;28;20026;-48
2023/06/17 03:20:12;;;;;;;10.85;7.03;;;;;;;15.67;66.30;98566.63;4994276;28;20038;-49
2023/06/17 03:22:38;;;;;;;9.57;8.57;;;;;;;15.68;66.60;98571.69;5011984;28;20046;-48
2023/06/17 03:25:05;;;;;;;8.90;6.95;;;;;;;15.64;66.76;98573.19;4994299;28;20105;-48
2023/06/17 03:27:31;;;;;;;11.90;6.43;;;;;;;15.56;66.71;98576.22;5011878;28;20034;-48
2023/06/17 03:29:57;;;;;;;11.15;10.00;;;;;;;15.48;67.14;98571.28;4994245;28;20026;-48
2023/06/17 03:32:22;;;;;;;9.65;8.02;;;;;;;15.43;67.63;98573.81;5011954;28;20455;-49
2023/06/17 03:34:49;;;;;;;8.63;6.97;;;;;;;15.34;67.84;98576.84;4994242;28;20022;-48
2023/06/17 03:37:14;;;;;;;14.43;8.68;;;;;;;15.25;67.97;98569.50;5011843;28;20080;-48
2023/06/17 03:39:42;;;;;;;9.15;6.72;;;;;;;15.27;68.39;98576.19;4994490;28;20022;-48
2023/06/17 03:42:08;;;;;;;8.57;6.22;;;;;;;15.37;68.41;98583.50;4994452;28;20030;-48
2023/06/17 03:44:33;;;;;;;13.95;9.48;;;;;;;15.59;68.17;98583.66;5012113;28;20025;-48
2023/06/17 03:46:59;;;;;;;8.88;6.18;;;;;;;15.94;67.54;98583.56;4994088;28;20030;-48
2023/06/17 03:49:25;;;;;;;8.65;5.57;;;;;;;16.16;66.77;98581.03;4994055;28;20026;-48
2023/06/17 03:51:51;;;;;;;12.63;6.30;;;;;;;16.41;66.23;98577.19;4994094;28;20031;-48
2023/06/17 03:54:17;;;;;;;9.65;6.40;;;;;;;16.55;65.16;98583.75;5011714;28;20018;-48
2023/06/17 03:56:43;;;;;;;12.90;5.45;;;;;;;16.92;65.21;98585.13;4994284;28;20041;-48
2023/06/17 03:59:08;;;;;;;14.00;6.07;;;;;;;17.32;63.87;98576.09;5011718;28;20022;-48
2023/06/17 04:01:35;;;;;;;16.50;6.47;;;;;;;17.47;62.41;98576.28;4997868;28;20034;-48
2023/06/17 04:04:01;;;;;;;19.77;17.80;;;;;;;17.19;61.54;98577.28;5015327;28;20036;-48
2023/06/17 04:06:26;;;;;;;8.95;6.70;;;;;;;16.73;62.34;98581.91;5002173;28;20543;-48
2023/06/17 04:08:53;;;;;;;10.90;7.38;;;;;;;16.52;63.34;98581.59;5014020;28;20095;-48
2023/06/17 04:11:19;;;;;;;8.73;5.70;;;;;;;16.48;63.26;98580.50;5014024;28;20500;-48
2023/06/17 04:13:44;;;;;;;9.52;5.28;;;;;;;16.39;63.51;98584.56;5015377;28;20232;-48
2023/06/17 04:16:17;;;;;;;9.48;5.43;;;;;;;16.46;63.62;98585.22;5015275;28;20037;-48
2023/06/17 04:18:42;;;;;;;8.82;5.53;;;;;;;16.53;63.40;98582.41;5015257;28;20018;-48
2023/06/17 04:21:09;;;;;;;14.40;6.13;;;;;;;16.65;63.18;98583.13;5015174;28;20037;-48
2023/06/17 04:23:35;;;;;;;12.75;5.43;;;;;;;16.89;62.51;98586.41;5014166;28;20403;-48
2023/06/17 04:26:01;;;;;;;8.80;7.47;;;;;;;17.17;61.56;98580.16;5013703;28;20022;-48
2023/06/17 04:28:31;;;;;;;5.97;5.38;;;;;;;17.25;60.91;98586.88;5015059;28;20022;-48
2023/06/17 04:31:00;;;;;;;12.82;5.95;;;;;;;17.22;60.88;98578.63;5015309;28;20037;-48
2023/06/17 04:33:30;;;;;;;12.68;6.68;;;;;;;17.32;60.78;98576.09;5015052;28;20026;-48
2023/06/17 04:35:56;;;;;;;15.15;6.05;;;;;;;17.43;60.87;98583.13;5014953;28;20033;-48
2023/06/17 04:38:23;;;;;;;8.93;5.50;;;;;;;17.51;60.58;98588.00;5013887;28;20026;-48
2023/06/17 04:40:52;;;;;;;8.75;7.07;;;;;;;17.52;60.64;98581.63;5014821;28;20103;-48
2023/06/17 04:43:21;;;;;;;11.25;8.93;;;;;;;17.51;60.27;98585.34;5014773;28;20101;-48
2023/06/17 04:45:46;;;;;;;9.25;5.72;;;;;;;17.63;60.11;98585.22;5014673;28;20022;-48
2023/06/17 04:48:12;;;;;;;29.63;26.75;;;;;;;17.86;59.44;98583.34;5013660;28;20506;-48
2023/06/17 04:50:38;;;;;;;7.47;6.60;;;;;;;18.08;58.65;98583.31;5014553;28;20034;-48
2023/06/17 04:53:04;;;;;;;12.35;8.60;;;;;;;18.16;58.05;98583.63;5014544;28;20026;-48
2023/06/17 04:55:35;;;;;;;206.75;173.60;;;;;;;18.21;57.77;98582.91;5014532;28;20033;-48
2023/06/17 04:58:03;;;;;;;1041.13;684.58;;;;;;;18.52;57.24;98588.47;5014575;28;20061;-48
2023/06/17 05:00:30;;;;;;;93.13;76.82;;;;;;;19.02;56.09;98586.44;5014401;28;20109;-48
2023/06/17 05:02:55;;;;;;;11.60;9.95;;;;;;;19.45;54.80;98584.47;5014449;28;20364;-48
2023/06/17 05:05:21;;;;;;;18.38;10.80;;;;;;;19.92;53.53;98588.88;5013319;28;20108;-48
2023/06/17 05:07:46;;;;;;;16.67;6.60;;;;;;;20.43;52.56;98583.63;5014138;28;20124;-48
2023/06/17 05:10:14;;;;;;;6.65;5.65;;;;;;;20.68;50.55;98569.47;5013758;28;20049;-48
2023/06/17 05:12:41;;;;;;;17.85;15.77;;;;;;;20.34;50.99;98579.88;5014191;28;20029;-48
2023/06/17 05:15:07;;;;;;;9.27;7.75;;;;;;;20.11;51.39;98583.88;4996478;28;20505;-48
2023/06/17 05:17:33;;;;;;;10.75;5.93;;;;;;;19.90;52.00;98586.50;5014158;28;20042;-48
2023/06/17 05:19:59;;;;;;;9.10;6.13;;;;;;;19.99;52.11;98592.09;5014074;28;20511;-48
2023/06/17 05:22:24;;;;;;;9.20;5.75;;;;;;;19.94;51.77;98590.25;4996431;28;20072;-48
2023/06/17 05:24:50;;;;;;;11.70;6.40;;;;;;;19.93;52.40;98590.50;5014023;28;20037;-48
2023/06/17 05:27:16;;;;;;;10.98;5.63;;;;;;;20.18;51.72;98584.38;4996295;28;20073;-48
2023/06/17 05:29:42;;;;;;;9.52;5.68;;;;;;;20.14;51.65;98583.31;4996208;28;20100;-48
2023/06/17 05:32:08;;;;;;;19.63;10.05;;;;;;;20.43;51.43;98583.63;4996202;28;20484;-48
2023/06/17 05:34:34;;;;;;;6.60;5.63;;;;;;;20.42;50.84;98587.34;5013868;28;20129;-48
2023/06/17 05:36:59;;;;;;;26.33;14.18;;;;;;;20.49;50.99;98584.41;5013701;28;20032;-46
2023/06/17 05:39:28;;;;;;;9.68;5.90;;;;;;;20.99;49.96;98581.94;5013740;28;20068;-46
2023/06/17 05:41:54;;;;;;;9.52;5.70;;;;;;;21.70;48.09;98588.91;5013689;28;20029;-46
2023/06/17 05:44:19;;;;;;;7.53;5.57;;;;;;;22.34;46.26;98589.88;5013636;28;20492;-46
2023/06/17 05:46:45;;;;;;;5.63;5.05;;;;;;;22.64;44.94;98583.44;4996243;28;20121;-46
2023/06/17 05:49:11;;;;;;;12.63;5.35;;;;;;;22.69;44.87;98591.41;5013430;28;20061;-46
2023/06/17 05:51:36;;;;;;;9.23;6.28;;;;;;;22.85;45.22;98584.03;4979667;28;20057;-46
2023/06/17 05:54:05;;;;;;;11.88;6.00;;;;;;;23.26;44.32;98583.63;4995850;28;20040;-45
2023/06/17 05:56:31;;;;;;;8.35;4.57;;;;;;;23.87;42.21;98592.78;5013419;28;20026;-46
2023/06/17 05:58:56;;;;;;;9.23;5.45;;;;;;;24.13;41.67;98595.88;4995667;28;20121;-46
2023/06/17 06:01:22;;;;;;;7.05;5.38;;;;;;;24.29;41.25;98607.16;4995710;28;20045;-46
2023/06/17 06:03:47;;;;;;;8.38;5.07;;;;;;;24.65;40.75;98601.25;5013247;28;20108;-47
2023/06/17 06:06:13;;;;;;;15.13;5.65;;;;;;;25.70;39.69;98597.09;4998470;28;20107;-46
2023/06/17 06:08:39;;;;;;;18.08;5.70;;;;;;;27.36;36.81;98593.53;5011902;28;20034;-46
2023/06/17 06:11:04;;;;;;;7.07;4.93;;;;;;;28.42;34.86;98595.97;5013096;28;20499;-46
2023/06/17 06:13:30;;;;;;;7.22;5.28;;;;;;;28.69;33.88;98602.13;5011907;28;20037;-46
2023/06/17 06:15:56;;;;;;;15.75;5.18;;;;;;;29.09;33.23;98593.72;5013116;28;20073;-47
2023/06/17 06:18:21;;;;;;;19.60;6.30;;;;;;;29.93;32.28;98603.91;5013158;28;20506;-46
2023/06/17 06:20:47;;;;;;;21.15;5.80;;;;;;;30.98;31.34;98599.06;5012988;28;20116;-46
2023/06/17 06:23:13;;;;;;;23.70;6.05;;;;;;;31.90;30.17;98596.81;5012260;28;20515;-46
2023/06/17 06:25:38;;;;;;;19.08;6.22;;;;;;;32.48;29.16;98601.13;4995367;28;20029;-46
2023/06/17 06:28:05;;;;;;;18.02;5.38;;;;;;;33.00;28.18;98594.69;5011607;28;20390;-46
2023/06/17 06:30:31;;;;;;;12.27;5.47;;;;;;;33.23;27.53;98608.47;5011489;28;20388;-46
2023/06/17 06:32:58;;;;;;;12.63;5.80;;;;;;;33.09;27.68;98611.63;5011499;28;20036;-47
2023/06/17 06:35:23;;;;;;;21.90;5.53;;;;;;;33.32;27.55;98611.00;5012782;28;20096;-46
2023/06/17 06:37:49;;;;;;;8.68;5.13;;;;;;;33.52;26.87;98614.53;5012683;28;20034;-46
2023/06/17 06:40:15;;;;;;;18.85;6.38;;;;;;;33.62;27.00;98603.94;5011387;28;20033;-46
2023/06/17 06:42:41;;;;;;;15.48;6.32;;;;;;;34.09;26.54;98599.44;5012650;28;20053;-46
2023/06/17 06:45:07;;;;;;;15.73;6.00;;;;;;;34.67;25.57;98600.53;5012855;28;20113;-46
2023/06/17 06:47:33;;;;;;;12.10;5.47;;;;;;;34.90;25.69;98603.25;5011289;28;20030;-46
2023/06/17 06:49:58;;;;;;;12.80;6.15;;;;;;;35.25;24.91;98602.25;5011090;28;20114;-46
2023/06/17 06:52:24;;;;;;;15.02;5.80;;;;;;;35.42;24.81;98596.28;5011209;28;20041;-46
2023/06/17 06:54:50;;;;;;;13.77;5.53;;;;;;;35.59;24.00;98598.44;5012684;28;20434;-46
2023/06/17 06:57:16;;;;;;;13.73;6.18;;;;;;;35.80;24.35;98599.91;5011106;28;20084;-46
2023/06/17 06:59:42;;;;;;;12.52;5.28;;;;;;;35.89;23.68;98605.88;5012378;28;20026;-46
2023/06/17 07:02:07;;;;;;;28.90;7.30;;;;;;;36.32;24.07;98613.78;5012356;28;20060;-46
2023/06/17 07:04:33;;;;;;;14.73;5.40;;;;;;;36.72;23.23;98613.03;5012317;28;20030;-47
2023/06/17 07:06:59;;;;;;;12.23;5.28;;;;;;;36.83;23.11;98604.94;5010751;28;20054;-47
2023/06/17 07:09:25;;;;;;;12.90;5.05;;;;;;;36.83;22.97;98598.69;5010851;28;20399;-46
2023/06/17 07:11:50;;;;;;;22.52;6.38;;;;;;;36.31;23.64;98607.53;5010858;28;20116;-46
2023/06/17 07:14:16;;;;;;;20.13;6.53;;;;;;;35.70;23.71;98603.28;5012427;28;20029;-46
2023/06/17 07:16:41;;;;;;;20.38;6.32;;;;;;;35.52;24.42;98600.31;5012332;28;20518;-46
2023/06/17 07:19:07;;;;;;;9.88;5.40;;;;;;;35.70;23.82;98606.81;5010822;28;20026;-47
2023/06/17 07:21:33;;;;;;;19.88;5.93;;;;;;;35.58;24.30;98610.53;4994455;28;20065;-47
2023/06/17 07:23:58;;;;;;;11.10;5.78;;;;;;;35.41;24.65;98613.78;5012108;28;20030;-46
2023/06/17 07:26:24;;;;;;;10.65;5.53;;;;;;;35.03;25.06;98615.53;5012080;28;20034;-47
2023/06/17 07:28:50;;;;;;;12.93;6.53;;;;;;;34.41;25.77;98619.16;5012183;28;20405;-46
2023/06/17 07:31:15;;;;;;;12.00;7.10;;;;;;;33.87;26.84;98622.72;5012005;28;20488;-46
2023/06/17 07:33:41;;;;;;;13.05;7.35;;;;;;;33.62;27.25;98619.47;5011671;28;20128;-46
2023/06/17 07:36:07;;;;;;;12.25;7.20;;;;;;;33.75;27.97;98628.31;5014751;28;20466;-46
2023/06/17 07:38:36;;;;;;;11.63;8.65;;;;;;;34.01;27.26;98623.00;5016057;28;20099;-46
2023/06/17 07:41:01;;;;;;;8.80;7.72;;;;;;;34.24;27.15;98616.88;5015975;28;20030;-46
2023/06/17 07:43:27;;;;;;;21.63;7.97;;;;;;;34.61;26.87;98614.44;5014617;28;20036;-46
2023/06/17 07:45:53;;;;;;;10.50;8.18;;;;;;;35.14;25.87;98618.44;5016113;28;20034;-46
2023/06/17 07:48:18;;;;;;;15.23;7.30;;;;;;;35.44;25.87;98610.34;5015883;28;20025;-46
2023/06/17 07:50:44;;;;;;;12.48;7.15;;;;;;;35.88;24.32;98598.03;5014417;28;20511;-46
2023/06/17 07:53:10;;;;;;;11.70;10.50;;;;;;;36.05;24.00;98599.41;5014449;28;20099;-46
2023/06/17 07:55:37;;;;;;;15.05;7.20;;;;;;;36.32;23.36;98592.72;5014396;28;20288;-46
2023/06/17 07:58:03;;;;;;;12.50;6.97;;;;;;;36.96;22.10;98597.97;5014474;28;20034;-47
2023/06/17 08:00:28;;;;;;;23.88;7.38;;;;;;;37.61;21.85;98589.44;5014328;28;20029;-47
2023/06/17 08:02:55;;;;;;;12.05;6.57;;;;;;;38.08;20.80;98593.97;5014339;28;20022;-47
2023/06/17 08:05:21;;;;;;;7.45;6.05;;;;;;;38.68;19.63;98589.75;5014228;28;20029;-47
2023/06/17 08:07:47;;;;;;;8.98;6.50;;;;;;;39.43;19.40;98599.13;5015329;28;20052;-49
2023/06/17 08:10:12;;;;;;;9.43;6.60;;;;;;;39.53;19.31;98590.09;5015233;28;20114;-49
2023/06/17 08:12:38;;;;;;;15.43;6.15;;;;;;;39.72;19.16;98586.88;4997761;28;20124;-49
2023/06/17 08:15:05;;;;;;;9.35;7.07;;;;;;;39.61;19.12;98585.34;5015317;28;20061;-50
2023/06/17 08:17:31;;;;;;;9.77;6.90;;;;;;;39.54;19.49;98578.69;5015493;28;20034;-49
2023/06/17 08:19:57;;;;;;;12.43;8.07;;;;;;;40.13;18.72;98580.03;4997651;28;20109;-49
2023/06/17 08:22:22;;;;;;;7.80;7.05;;;;;;;40.71;18.42;98586.69;5015155;28;20052;-50
2023/06/17 08:24:48;;;;;;;11.77;9.10;;;;;;;40.91;18.40;98575.94;5015158;28;20036;-49
2023/06/17 08:27:14;;;;;;;11.15;8.38;;;;;;;40.99;18.88;98586.88;4981252;28;20033;-49
2023/06/17 08:29:40;;;;;;;7.85;5.60;;;;;;;41.02;18.02;98583.31;5014987;28;20044;-50
2023/06/17 08:32:06;;;;;;;9.70;6.55;;;;;;;41.40;17.85;98577.81;4981282;28;20041;-50
2023/06/17 08:34:32;;;;;;;15.63;6.95;;;;;;;41.35;17.98;98575.50;4997372;28;20030;-49
2023/06/17 08:37:04;;;;;;;11.20;6.57;;;;;;;41.29;17.96;98572.41;5014895;28;20114;-50
2023/06/17 08:39:31;;;;;;;9.00;5.80;;;;;;;41.46;17.99;98571.44;4997615;28;20405;-49
2023/06/17 08:41:57;;;;;;;8.75;5.72;;;;;;;41.73;17.80;98576.25;5014785;28;20034;-50
2023/06/17 08:44:24;;;;;;;8.52;4.85;;;;;;;42.06;17.24;98571.13;4997549;28;20037;-49
2023/06/17 08:46:53;;;;;;;6.93;4.90;;;;;;;42.12;16.62;98572.22;5014040;28;20496;-50
2023/06/17 08:49:21;;;;;;;14.77;5.63;;;;;;;42.06;16.69;98558.13;5014674;28;20399;-50
2023/06/17 08:51:50;;;;;;;11.38;4.13;;;;;;;41.48;16.63;98568.28;5014630;28;20026;-49
2023/06/17 08:54:17;;;;;;;7.97;4.22;;;;;;;40.19;17.41;98563.88;4996956;28;20072;-50
2023/06/17 08:56:44;;;;;;;6.25;4.47;;;;;;;39.98;17.54;98559.28;4980683;28;20033;-50
2023/06/17 08:59:10;;;;;;;7.50;4.30;;;;;;;40.02;17.87;98552.56;5014531;28;20034;-50
2023/06/17 09:01:38;;;;;;;6.80;5.65;;;;;;;40.02;17.87;98557.31;5014477;28;20029;-50
2023/06/17 09:04:04;;;;;;;5.47;4.15;;;;;;;40.31;17.82;98557.94;4996984;28;20041;-49
2023/06/17 09:06:31;;;;;;;4.95;4.40;;;;;;;40.71;17.26;98555.66;5014140;28;20049;-50
2023/06/17 09:08:58;;;;;;;5.38;4.60;;;;;;;40.96;17.11;98555.44;5014325;28;20033;-50
2023/06/17 09:11:30;;;;;;;5.65;5.13;;;;;;;40.89;16.95;98550.00;4996589;28;20046;-50
2023/06/17 09:13:58;;;;;;;8.88;5.82;;;;;;;40.07;17.51;98549.41;5014185;28;20041;-50
2023/06/17 09:16:30;;;;;;;8.43;5.13;;;;;;;39.77;17.92;98544.47;5014235;28;20028;-49
2023/06/17 09:18:57;;;;;;;15.05;5.88;;;;;;;39.87;18.19;98548.38;4996575;28;20133;-49
2023/06/17 09:21:24;;;;;;;9.25;4.72;;;;;;;40.62;17.61;98547.84;5014375;28;20392;-49
2023/06/17 09:23:58;;;;;;;18.40;9.32;;;;;;;41.18;17.15;98547.75;4996885;28;20104;-50
2023/06/17 09:26:27;;;;;;;10.23;4.90;;;;;;;41.50;16.86;98541.09;4996507;28;20026;-50
2023/06/17 09:28:53;;;;;;;18.88;5.50;;;;;;;41.58;16.75;98548.09;5013841;28;20030;-50
2023/06/17 09:31:19;;;;;;;10.55;4.65;;;;;;;41.48;16.83;98540.72;5013918;28;20499;-50
2023/06/17 09:33:45;;;;;;;9.32;5.60;;;;;;;41.48;16.79;98530.50;5013923;28;20041;-50
2023/06/17 09:36:11;;;;;;;6.30;4.28;;;;;;;41.96;16.65;98531.47;4996198;28;20034;-50
2023/06/17 09:38:38;;;;;;;6.80;4.65;;;;;;;42.45;15.78;98531.94;4996180;28;20455;-50
2023/06/17 09:41:04;;;;;;;8.50;5.07;;;;;;;42.91;15.27;98521.31;4996153;28;20030;-50
2023/06/17 09:43:30;;;;;;;13.80;4.43;;;;;;;42.99;15.41;98533.78;4979998;28;20033;-50
2023/06/17 09:46:04;;;;;;;4.65;4.22;;;;;;;42.89;15.26;98520.94;4996079;28;20412;-50
2023/06/17 09:48:40;;;;;;;11.20;5.13;;;;;;;42.82;15.43;98527.34;5013602;28;20389;-50
2023/06/17 09:51:12;;;;;;;8.05;4.13;;;;;;;42.97;14.88;98524.34;5013603;28;20038;-50
2023/06/17 09:53:38;;;;;;;19.08;5.13;;;;;;;43.23;14.63;98520.69;5013501;28;20069;-50
2023/06/17 09:56:10;;;;;;;6.95;3.38;;;;;;;43.61;14.02;98519.53;4995870;28;20026;-50
2023/06/17 09:58:38;;;;;;;10.27;3.83;;;;;;;43.84;14.20;98524.19;5012454;28;20057;-50
2023/06/17 10:01:06;;;;;;;7.85;3.55;;;;;;;43.55;13.90;98522.03;5013370;28;20025;-50
2023/06/17 10:03:35;;;;;;;9.55;3.67;;;;;;;43.18;13.77;98520.38;5013636;28;20037;-50
2023/06/17 10:06:09;;;;;;;6.30;3.22;;;;;;;43.00;13.61;98523.50;4996401;28;20104;-50
2023/06/17 10:08:41;;;;;;;6.88;3.45;;;;;;;43.08;14.00;98522.16;5012015;28;20483;-50
2023/06/17 10:11:12;;;;;;;5.30;3.15;;;;;;;42.89;13.72;98523.72;5013164;28;20038;-50
2023/06/17 10:13:41;;;;;;;8.50;3.30;;;;;;;42.60;14.52;98526.16;5013403;28;20406;-50
2023/06/17 10:16:12;;;;;;;8.90;3.60;;;;;;;42.65;14.27;98526.47;5013052;28;20065;-49
2023/06/17 10:18:41;;;;;;;3.83;3.22;;;;;;;42.68;14.15;98522.06;5013108;28;20040;-50
2023/06/17 10:21:10;;;;;;;9.57;3.03;;;;;;;42.64;13.89;98515.84;5012997;28;20484;-50
2023/06/17 10:23:37;;;;;;;5.97;2.90;;;;;;;42.75;13.87;98510.13;5013004;28;20124;-49
2023/06/17 10:26:08;;;;;;;13.15;4.20;;;;;;;42.88;13.85;98511.09;5011600;28;20109;-49
2023/06/17 10:28:44;;;;;;;6.40;3.10;;;;;;;42.96;13.71;98512.50;5012888;28;20034;-50
2023/06/17 10:31:24;;;;;;;3.10;2.80;;;;;;;43.11;13.44;98512.25;5012809;28;20044;-50
2023/06/17 10:33:52;;;;;;;5.38;2.97;;;;;;;42.87;13.07;98515.06;5012855;28;20089;-50
2023/06/17 10:36:20;;;;;;;21.00;4.25;;;;;;;42.59;13.76;98524.63;5011495;28;20442;-50
2023/06/17 10:38:54;;;;;;;7.75;3.42;;;;;;;42.62;13.46;98516.28;5011564;28;20543;-50
2023/06/17 10:41:20;;;;;;;18.35;9.55;;;;;;;42.44;13.95;98513.81;5012619;28;20116;-49
2023/06/17 10:43:45;;;;;;;9.10;3.53;;;;;;;42.78;14.35;98512.03;5012715;28;20112;-50
2023/06/17 10:46:11;;;;;;;13.32;3.70;;;;;;;43.13;13.99;98510.63;5011267;28;20034;-49
2023/06/17 10:48:37;;;;;;;7.78;3.42;;;;;;;43.09;13.94;98507.94;5012484;28;20030;-50
2023/06/17 10:51:11;;;;;;;6.38;4.20;;;;;;;43.20;14.23;98501.41;5011130;28;20400;-49
2023/06/17 10:53:37;;;;;;;3.05;2.72;;;;;;;43.28;13.66;98503.63;5011288;28;20030;-50
2023/06/17 10:56:09;;;;;;;4.43;2.70;;;;;;;43.25;13.66;98500.91;5012486;28;20041;-50
2023/06/17 10:58:36;;;;;;;11.13;3.35;;;;;;;43.15;13.42;98504.69;5012482;28;20026;-50
2023/06/17 11:01:08;;;;;;;6.20;2.80;;;;;;;43.14;13.68;98506.66;5012407;28;20030;-50
2023/06/17 11:03:34;;;;;;;4.68;2.72;;;;;;;43.40;13.27;98502.19;5011015;28;20030;-49
2023/06/17 11:06:05;;;;;;;8.07;3.17;;;;;;;43.38;13.33;98512.13;5010780;28;20054;-50
2023/06/17 11:08:33;;;;;;;7.15;3.03;;;;;;;43.53;13.77;98504.28;5010673;28;20037;-50
2023/06/17 11:11:09;;;;;;;6.05;2.65;;;;;;;43.86;12.95;98505.19;5010821;28;20112;-50
2023/06/17 11:13:37;;;;;;;18.65;3.90;;;;;;;43.75;13.06;98504.63;5012197;28;20033;-50
2023/06/17 11:16:04;;;;;;;6.57;2.95;;;;;;;42.98;12.97;98504.59;5010912;28;20045;-50
2023/06/17 11:18:29;;;;;;;15.13;3.40;;;;;;;42.89;13.33;98513.44;5012199;28;20099;-50
2023/06/17 11:20:55;;;;;;;5.25;2.60;;;;;;;43.23;13.69;98498.56;5012201;28;20739;-50
2023/06/17 11:23:20;;;;;;;6.93;2.92;;;;;;;43.56;13.01;98495.94;5010828;28;20030;-50
2023/06/17 11:25:50;;;;;;;6.65;2.53;;;;;;;43.51;11.92;98492.88;5010749;28;20037;-50
2023/06/17 11:28:16;;;;;;;4.75;2.53;;;;;;;43.49;12.44;98494.13;5010899;28;20069;-50
2023/06/17 11:30:42;;;;;;;5.32;2.53;;;;;;;43.66;12.34;98492.16;5010686;28;20472;-49